createdAt,value
2018-11-22T12:17:41.419Z,7.53
2018-11-22T12:20:10.551Z,7.40
2018-11-22T12:22:39.143Z,7.37
2018-11-22T12:25:08.661Z,7.32
2018-11-22T12:27:36.407Z,7.43
2018-11-22T12:30:05.696Z,7.37
2018-11-22T12:32:34.689Z,7.40
2018-11-22T12:35:07.847Z,7.49
2018-11-22T12:37:43.131Z,7.48
2018-11-22T12:40:08.440Z,7.50
2018-11-22T12:42:36.189Z,7.31
2018-11-22T12:45:04.558Z,7.26
2018-11-22T12:47:32.915Z,7.31
2018-11-22T12:50:01.299Z,7.20
2018-11-22T12:52:29.079Z,7.33
2018-11-22T12:54:56.962Z,7.22
2018-11-22T12:57:25.336Z,7.27
2018-11-22T12:59:53.140Z,7.36
2018-11-22T13:02:20.888Z,7.34
2018-11-22T13:04:48.777Z,7.43
2018-11-22T13:07:16.921Z,7.42
2018-11-22T13:09:44.664Z,7.34
2018-11-22T13:12:12.411Z,7.30
2018-11-22T13:14:40.139Z,7.31
2018-11-22T13:17:08.170Z,7.44
2018-11-22T13:19:36.787Z,7.42
2018-11-22T13:22:04.598Z,7.48
2018-11-22T13:24:32.323Z,7.30
2018-11-22T13:27:00.061Z,7.32
2018-11-22T13:29:27.839Z,7.22
2018-11-22T13:31:55.596Z,7.38
2018-11-22T13:34:23.318Z,7.35
2018-11-22T13:36:51.054Z,7.35
2018-11-22T13:39:18.795Z,7.32
2018-11-22T13:41:46.531Z,7.31
2018-11-22T13:44:14.256Z,7.26
2018-11-22T13:46:41.976Z,7.37
2018-11-22T13:49:09.719Z,7.17
2018-11-22T13:51:37.444Z,7.18
2018-11-22T13:54:05.520Z,7.19
2018-11-22T13:56:33.266Z,7.21
2018-11-22T13:59:01.009Z,7.25
2018-11-22T14:01:28.809Z,7.34
2018-11-22T14:03:56.607Z,7.30
2018-11-22T14:06:24.351Z,7.29
2018-11-22T14:08:52.114Z,7.38
2018-11-22T14:11:19.939Z,7.31
2018-11-22T14:13:47.687Z,7.24
2018-11-22T14:16:15.431Z,7.32
2018-11-22T14:18:43.211Z,7.39
2018-11-22T14:21:10.964Z,7.39
2018-11-22T14:23:38.752Z,7.34
2018-11-22T14:26:06.528Z,7.38
2018-11-22T14:28:34.250Z,7.30
2018-11-22T14:31:02.023Z,7.21
2018-11-22T14:33:29.760Z,7.33
2018-11-22T14:35:57.492Z,7.43
2018-11-22T14:38:25.211Z,7.26
2018-11-22T14:40:52.955Z,7.29
2018-11-22T14:43:20.736Z,7.29
2018-11-22T14:45:48.481Z,7.18
2018-11-22T14:48:16.203Z,7.23
2018-11-22T14:50:47.258Z,7.11
2018-11-22T14:53:20.399Z,7.24
2018-11-22T14:55:48.195Z,7.14
2018-11-22T14:58:15.937Z,7.20
2018-11-22T15:00:43.760Z,7.14
2018-11-22T15:03:12.393Z,7.11
2018-11-22T15:05:40.146Z,7.25
2018-11-22T15:08:07.949Z,7.15
2018-11-22T15:10:35.673Z,7.15
2018-11-22T15:13:03.512Z,6.99
2018-11-22T15:15:31.319Z,7.20
2018-11-22T15:17:59.092Z,7.08
2018-11-22T15:20:26.815Z,7.09
2018-11-22T15:22:55.043Z,7.13
2018-11-22T15:25:24.128Z,7.26
2018-11-22T15:27:51.867Z,7.26
2018-11-22T15:30:23.571Z,7.14
2018-11-22T15:32:51.363Z,7.08
2018-11-22T15:35:20.417Z,7.02
2018-11-22T15:37:48.391Z,7.10
2018-11-22T15:40:20.397Z,7.03
2018-11-22T15:42:49.640Z,7.17
2018-11-22T15:45:18.614Z,7.03
2018-11-22T15:47:46.698Z,7.39
2018-11-22T15:50:18.680Z,7.24
2018-11-22T15:52:46.511Z,7.12
2018-11-22T15:55:20.895Z,7.12
2018-11-22T15:57:43.882Z,7.07
2018-11-22T16:00:13.828Z,7.09
2018-11-22T16:02:42.084Z,7.07
2018-11-22T16:05:10.975Z,7.03
2018-11-22T16:07:39.041Z,7.02
2018-11-22T16:10:09.856Z,7.04
2018-11-22T16:12:37.623Z,7.00
2018-11-22T16:15:08.850Z,7.05
2018-11-22T16:17:36.599Z,6.95
2018-11-22T16:20:04.760Z,7.05
2018-11-22T16:22:32.503Z,6.83
2018-11-22T16:25:00.243Z,6.84
2018-11-22T16:27:28.008Z,6.85
2018-11-22T16:29:55.777Z,6.92
2018-11-22T16:32:23.538Z,6.93
2018-11-22T16:34:51.287Z,6.92
2018-11-22T16:37:19.020Z,6.89
2018-11-22T16:39:47.858Z,6.78
2018-11-22T16:42:14.795Z,6.89
2018-11-22T16:44:42.576Z,6.89
2018-11-22T16:47:10.701Z,6.92
2018-11-22T16:49:38.463Z,6.91
2018-11-22T16:52:06.271Z,6.81
2018-11-22T16:54:34.020Z,6.93
2018-11-22T16:57:01.797Z,6.92
2018-11-22T16:59:29.536Z,6.92
2018-11-22T17:01:57.321Z,6.84
2018-11-22T17:04:25.064Z,6.69
2018-11-22T17:06:52.781Z,6.80
2018-11-22T17:09:20.563Z,6.82
2018-11-22T17:11:48.325Z,6.79
2018-11-22T17:14:16.068Z,6.73
2018-11-22T17:16:44.171Z,6.68
2018-11-22T17:19:11.899Z,6.68
2018-11-22T17:21:39.723Z,6.65
2018-11-22T17:24:07.475Z,6.58
2018-11-22T17:26:35.203Z,6.68
2018-11-22T17:29:03.007Z,6.66
2018-11-22T17:31:30.865Z,6.53
2018-11-22T17:33:58.649Z,6.51
2018-11-22T17:36:26.374Z,6.60
2018-11-22T17:38:54.112Z,6.56
2018-11-22T17:43:57.063Z,6.48
2018-11-22T17:46:24.796Z,6.48
2018-11-22T17:48:52.544Z,6.55
2018-11-22T17:51:20.326Z,6.44
2018-11-22T17:53:48.140Z,6.52
2018-11-22T17:56:16.040Z,6.54
2018-11-22T17:58:43.760Z,6.45
2018-11-22T18:01:14.666Z,6.35
2018-11-22T18:03:39.311Z,6.34
2018-11-22T18:06:07.044Z,6.53
2018-11-22T18:08:34.764Z,6.56
2018-11-22T18:11:02.503Z,6.61
2018-11-22T18:13:30.211Z,6.34
2018-11-22T18:15:59.337Z,6.40
2018-11-22T18:18:27.700Z,6.35
2018-11-22T18:20:55.430Z,6.42
2018-11-22T18:23:23.167Z,6.48
2018-11-22T18:25:50.908Z,6.48
2018-11-22T18:28:18.647Z,6.48
2018-11-22T18:30:46.399Z,6.50
2018-11-22T18:33:14.101Z,6.60
2018-11-22T18:35:41.831Z,6.67
2018-11-22T18:38:09.564Z,6.48
2018-11-22T18:40:38.765Z,6.62
2018-11-22T18:43:06.507Z,6.64
2018-11-22T18:45:36.679Z,6.62
2018-11-22T18:48:05.563Z,6.60
2018-11-22T18:50:34.060Z,6.50
2018-11-22T18:53:01.807Z,6.67
2018-11-22T18:55:29.568Z,6.42
2018-11-22T18:57:57.336Z,6.45
2018-11-22T19:00:27.367Z,6.46
2018-11-22T19:02:56.757Z,6.58
2018-11-22T19:05:24.602Z,6.66
2018-11-22T19:07:53.115Z,6.59
2018-11-22T19:10:23.123Z,6.64
2018-11-22T19:12:53.028Z,6.58
2018-11-22T19:15:23.049Z,6.53
2018-11-22T19:17:51.514Z,6.62
2018-11-22T19:20:21.657Z,6.48
2018-11-22T19:22:50.040Z,6.41
2018-11-22T19:25:18.359Z,6.56
2018-11-22T19:27:46.415Z,6.34
2018-11-22T19:30:19.322Z,6.43
2018-11-22T19:32:48.035Z,6.45
2018-11-22T19:35:16.917Z,6.58
2018-11-22T19:37:45.016Z,6.24
2018-11-22T19:40:15.216Z,6.34
2018-11-22T19:42:44.111Z,6.45
2018-11-22T19:45:14.125Z,6.50
2018-11-22T19:47:42.739Z,6.43
2018-11-22T19:50:13.334Z,6.45
2018-11-22T19:52:41.307Z,6.12
2018-11-22T19:55:11.522Z,6.39
2018-11-22T19:57:40.009Z,6.26
2018-11-22T20:00:09.581Z,6.39
2018-11-22T20:02:37.764Z,6.40
2018-11-22T20:05:06.451Z,6.39
2018-11-22T20:07:34.210Z,6.50
2018-11-22T20:10:01.996Z,6.47
2018-11-22T20:12:29.767Z,6.45
2018-11-22T20:14:57.523Z,6.19
2018-11-22T20:17:25.299Z,6.19
2018-11-22T20:19:53.017Z,6.12
2018-11-22T20:22:20.756Z,6.13
2018-11-22T20:24:48.487Z,6.03
2018-11-22T20:27:16.227Z,6.05
2018-11-22T20:29:43.970Z,6.13
2018-11-22T20:32:11.712Z,6.17
2018-11-22T20:34:39.448Z,6.20
2018-11-22T20:37:07.187Z,6.05
2018-11-22T20:39:34.911Z,5.90
2018-11-22T20:42:02.656Z,6.06
2018-11-22T20:44:30.385Z,5.93
2018-11-22T20:46:58.120Z,5.91
2018-11-22T20:49:25.860Z,5.94
2018-11-22T20:51:53.568Z,6.06
2018-11-22T20:54:21.332Z,6.03
2018-11-22T20:56:49.061Z,5.92
2018-11-22T20:59:16.848Z,6.20
2018-11-22T21:01:44.608Z,5.95
2018-11-22T21:04:12.332Z,5.84
2018-11-22T21:06:40.093Z,5.91
2018-11-22T21:09:08.720Z,5.94
2018-11-22T21:11:43.197Z,6.05
2018-11-22T21:14:05.272Z,6.06
2018-11-22T21:16:33.020Z,6.06
2018-11-22T21:19:00.754Z,6.00
2018-11-22T21:21:28.465Z,6.12
2018-11-22T21:23:56.190Z,6.05
2018-11-22T21:26:23.920Z,5.85
2018-11-22T21:28:51.702Z,5.84
2018-11-22T21:31:19.456Z,5.96
2018-11-22T21:33:47.182Z,5.83
2018-11-22T21:36:14.928Z,5.94
2018-11-22T21:38:42.643Z,5.96
2018-11-22T21:41:10.388Z,6.06
2018-11-22T21:43:38.138Z,5.99
2018-11-22T21:46:05.852Z,6.02
2018-11-22T21:48:33.591Z,6.07
2018-11-22T21:51:01.344Z,5.83
2018-11-22T21:53:29.145Z,5.65
2018-11-22T21:55:56.876Z,5.84
2018-11-22T21:58:24.647Z,5.92
2018-11-22T22:00:52.398Z,5.78
2018-11-22T22:03:20.132Z,5.81
2018-11-22T22:05:47.867Z,5.93
2018-11-22T22:08:15.609Z,5.66
2018-11-22T22:10:43.352Z,5.77
2018-11-22T22:13:11.099Z,5.62
2018-11-22T22:15:39.046Z,5.74
2018-11-22T22:18:07.812Z,5.78
2018-11-22T22:20:36.104Z,5.73
2018-11-22T22:23:03.974Z,5.78
2018-11-22T22:25:31.943Z,5.84
2018-11-22T22:28:00.113Z,5.93
2018-11-22T22:30:29.316Z,5.71
2018-11-22T22:32:58.452Z,5.73
2018-11-22T22:35:26.276Z,5.60
2018-11-22T22:37:54.027Z,5.83
2018-11-22T22:40:23.024Z,5.83
2018-11-22T22:42:51.730Z,5.90
2018-11-22T22:45:20.393Z,6.02
2018-11-22T22:47:48.715Z,5.98
2018-11-22T22:50:24.309Z,6.12
2018-11-22T22:52:53.418Z,6.12
2018-11-22T22:55:21.223Z,5.96
2018-11-22T22:57:48.963Z,5.81
2018-11-22T23:00:24.463Z,5.80
2018-11-22T23:02:55.311Z,5.64
2018-11-22T23:05:23.680Z,5.91
2018-11-22T23:07:51.544Z,5.92
2018-11-22T23:10:19.837Z,5.87
2018-11-22T23:12:47.612Z,5.95
2018-11-22T23:15:16.183Z,5.62
2018-11-22T23:17:43.987Z,5.73
2018-11-22T23:20:14.163Z,5.90
2018-11-22T23:22:42.293Z,5.88
2018-11-22T23:25:10.940Z,5.64
2018-11-22T23:27:39.094Z,5.76
2018-11-22T23:30:15.152Z,5.65
2018-11-22T23:32:44.013Z,5.76
2018-11-22T23:35:11.747Z,6.05
2018-11-22T23:37:39.676Z,5.86
2018-11-22T23:40:10.427Z,5.87
2018-11-22T23:42:38.376Z,5.75
2018-11-22T23:45:07.616Z,5.83
2018-11-22T23:47:35.444Z,5.68
2018-11-22T23:50:03.550Z,5.81
2018-11-22T23:52:31.287Z,5.86
2018-11-22T23:54:59.020Z,5.75
2018-11-22T23:57:26.736Z,5.85
2018-11-22T23:59:54.479Z,5.88
